Time;durP1;ratioP1;P1;durP2;ratioP2;P2;SDS_P1;SDS_P2;PMS_P1;PMS_P2;Temp;Humidity;BMP_temperature;BMP_pressure;BME280_temperature;BME280_humidity;BME280_pressure;Samples;Min_cycle;Max_cycle;Signal;HPM_P1;HPM_P2
2022/08/29 00:00:20;;;;;;;9.50;7.70;;;;;;;19.68;89.41;99892.42;130377;1267;108862;-72
2022/08/29 00:03:38;;;;;;;;;;;;;;;19.71;89.23;99893.95;130382;1268;108690;-73
2022/08/29 00:06:43;;;;;;;9.70;7.50;;;;;;;19.74;89.29;99890.64;130396;1267;108560;-72
2022/08/29 00:09:49;;;;;;;8.30;7.10;;;;;;;19.78;89.20;99888.91;130399;1267;108779;-72
2022/08/29 00:12:55;;;;;;;11.10;8.10;;;;;;;19.89;89.06;99885.20;130421;1268;108855;-72
2022/08/29 00:16:00;;;;;;;9.90;8.10;;;;;;;19.96;88.98;99880.98;130364;1267;108565;-71
2022/08/29 00:19:06;;;;;;;9.00;7.20;;;;;;;19.98;88.90;99881.77;128757;1267;2138857;-72
2022/08/29 00:22:11;;;;;;;8.80;7.30;;;;;;;19.98;88.95;99880.13;130461;1267;108735;-74
2022/08/29 00:25:17;;;;;;;8.20;6.80;;;;;;;19.92;88.91;99880.60;130446;1267;106920;-74
2022/08/29 00:28:23;;;;;;;10.00;7.50;;;;;;;19.95;89.22;99883.33;130455;1268;108793;-75
2022/08/29 00:31:28;;;;;;;8.30;7.10;;;;;;;19.90;89.14;99887.56;130455;1266;108234;-74
2022/08/29 00:34:34;;;;;;;7.60;6.70;;;;;;;19.88;89.08;99889.29;130371;1268;108958;-74
2022/08/29 00:37:39;;;;;;;10.10;7.00;;;;;;;19.87;89.30;99893.55;130418;1267;108888;-74
2022/08/29 00:40:47;;;;;;;8.90;7.70;;;;;;;19.86;89.30;99893.66;130356;1267;108925;-74
2022/08/29 00:43:53;;;;;;;10.20;7.00;;;;;;;19.79;89.55;99893.48;130347;1268;107713;-74
2022/08/29 00:47:03;;;;;;;9.80;7.20;;;;;;;19.74;89.73;99896.38;130319;1268;108197;-74
2022/08/29 00:50:15;;;;;;;8.20;7.30;;;;;;;19.73;89.89;99898.78;130366;1268;108690;-73
2022/08/29 00:53:27;;;;;;;9.30;7.50;;;;;;;19.66;89.93;99900.36;130372;1268;108723;-70
2022/08/29 00:56:34;;;;;;;8.50;6.70;;;;;;;19.60;90.50;99902.16;130379;1266;108673;-74
2022/08/29 00:59:41;;;;;;;12.00;7.50;;;;;;;19.51;90.57;99904.64;130462;1266;108533;-73
2022/08/29 01:02:47;;;;;;;8.80;6.70;;;;;;;19.51;90.99;99904.55;130404;1268;108833;-75
2022/08/29 01:05:53;;;;;;;8.10;6.80;;;;;;;19.48;90.78;99908.92;130435;1267;108660;-74
2022/08/29 01:08:59;;;;;;;7.90;7.00;;;;;;;19.48;91.19;99910.70;130405;1266;109739;-74
2022/08/29 01:12:15;;;;;;;7.60;6.60;;;;;;;19.49;90.87;99911.11;130320;1267;107663;-74
2022/08/29 01:15:21;;;;;;;6.70;5.90;;;;;;;19.58;90.61;99913.88;130352;1267;108664;-74
2022/08/29 01:18:29;;;;;;;6.90;6.10;;;;;;;19.58;90.99;99915.75;130319;1268;108724;-71
2022/08/29 01:21:43;;;;;;;9.00;6.10;;;;;;;19.56;91.04;99916.89;130371;1268;109166;-72
2022/08/29 01:24:50;;;;;;;7.90;6.40;;;;;;;19.51;91.04;99913.42;130417;1266;108562;-73
2022/08/29 01:28:03;;;;;;;7.50;5.30;;;;;;;19.41;91.98;99920.92;130311;1268;108880;-73
2022/08/29 01:31:10;;;;;;;5.90;5.30;;;;;;;19.30;92.19;99923.04;130443;1267;108760;-71
2022/08/29 01:34:18;;;;;;;6.50;5.20;;;;;;;19.22;92.35;99926.31;130460;1267;107611;-71
2022/08/29 01:37:25;;;;;;;6.30;5.40;;;;;;;19.28;92.43;99923.73;130464;1268;108763;-71
2022/08/29 01:40:34;;;;;;;6.80;5.20;;;;;;;19.32;92.21;99929.43;130376;1267;108720;-72
2022/08/29 01:43:46;;;;;;;6.20;4.40;;;;;;;19.24;92.72;99927.60;130478;1267;108819;-74
2022/08/29 01:46:55;;;;;;;6.00;4.50;;;;;;;19.15;93.05;99925.79;130379;1268;109154;-72
2022/08/29 01:50:01;;;;;;;6.50;5.50;;;;;;;19.12;93.28;99927.96;130453;1268;108985;-72
2022/08/29 01:53:07;;;;;;;6.40;5.70;;;;;;;19.11;93.35;99932.67;130420;1266;110002;-72
2022/08/29 01:56:17;;;;;;;6.70;5.00;;;;;;;19.10;93.62;99931.56;130260;1267;108741;-72
2022/08/29 01:59:25;;;;;;;6.70;5.50;;;;;;;19.07;94.36;99933.40;130217;1267;108699;-74
2022/08/29 02:02:31;;;;;;;8.80;5.10;;;;;;;19.00;94.20;99937.02;130383;1267;110134;-72
2022/08/29 02:05:36;;;;;;;6.40;5.80;;;;;;;19.00;94.48;99940.39;130346;1268;109018;-73
2022/08/29 02:08:44;;;;;;;6.90;6.00;;;;;;;18.98;94.41;99943.64;130412;1267;108560;-73
2022/08/29 02:11:49;;;;;;;6.70;5.90;;;;;;;18.95;94.88;99941.55;130294;1267;109115;-73
2022/08/29 02:14:55;;;;;;;6.90;5.40;;;;;;;18.92;95.55;99945.05;130249;1267;108675;-74
2022/08/29 02:18:00;;;;;;;6.30;5.60;;;;;;;18.85;95.69;99944.04;130286;1267;108744;-74
2022/08/29 02:21:06;;;;;;;6.10;5.10;;;;;;;18.87;95.51;99946.02;130337;1267;108661;-73
2022/08/29 02:24:12;;;;;;;6.70;5.70;;;;;;;18.91;95.01;99948.55;130339;1267;108800;-74
2022/08/29 02:27:18;;;;;;;7.20;5.80;;;;;;;18.92;95.81;99949.25;130329;1267;108840;-72
2022/08/29 02:30:24;;;;;;;8.30;5.40;;;;;;;18.90;95.46;99951.13;130313;1268;108994;-73
2022/08/29 02:33:30;;;;;;;7.30;5.50;;;;;;;18.87;96.17;99952.27;130301;1267;108705;-74
2022/08/29 02:36:36;;;;;;;6.60;5.30;;;;;;;18.83;96.56;99953.16;130318;1267;108960;-74
2022/08/29 02:39:42;;;;;;;7.70;5.80;;;;;;;18.83;96.27;99949.95;130211;1268;108908;-74
2022/08/29 02:42:47;;;;;;;7.30;6.10;;;;;;;18.81;96.72;99952.33;130311;1268;108654;-73
2022/08/29 02:45:53;;;;;;;7.10;6.30;;;;;;;18.81;96.40;99951.50;130356;1267;107731;-73
2022/08/29 02:48:58;;;;;;;8.30;5.70;;;;;;;18.79;96.86;99954.56;130373;1268;108670;-76
2022/08/29 02:52:05;;;;;;;8.80;5.70;;;;;;;18.78;96.43;99953.52;130368;1267;108956;-73
2022/08/29 02:55:16;;;;;;;6.70;5.00;;;;;;;18.78;96.83;99959.55;130396;1268;108090;-73
2022/08/29 02:58:23;;;;;;;6.20;5.40;;;;;;;18.81;96.31;99957.90;130395;1268;108718;-73
2022/08/29 03:01:30;;;;;;;6.50;5.30;;;;;;;18.87;96.49;99960.54;130485;1268;108648;-76
2022/08/29 03:04:35;;;;;;;7.00;6.30;;;;;;;18.88;96.74;99963.58;130480;1267;109132;-75
2022/08/29 03:07:40;;;;;;;6.60;5.90;;;;;;;18.84;97.85;99967.62;130499;1268;108772;-73
2022/08/29 03:10:46;;;;;;;7.10;6.00;;;;;;;18.83;97.23;99967.70;130383;1267;108862;-73
2022/08/29 03:13:51;;;;;;;8.60;6.40;;;;;;;18.82;97.86;99976.58;130423;1268;109155;-73
2022/08/29 03:16:57;;;;;;;8.10;6.10;;;;;;;18.79;98.18;99980.05;130377;1268;108968;-73
2022/08/29 03:20:04;;;;;;;7.00;6.00;;;;;;;18.76;97.83;99980.55;130420;1264;108868;-74
2022/08/29 03:23:10;;;;;;;7.40;6.20;;;;;;;18.78;97.34;99988.63;130403;1266;108828;-73
2022/08/29 03:26:15;;;;;;;9.30;6.30;;;;;;;18.78;97.35;99990.54;130355;1268;109194;-73
2022/08/29 03:29:20;;;;;;;7.60;6.00;;;;;;;18.73;98.67;99995.45;130391;1267;108865;-73
2022/08/29 03:32:27;;;;;;;5.90;5.30;;;;;;;18.70;97.75;99991.31;130428;1268;108979;-73
2022/08/29 03:35:32;;;;;;;7.10;5.90;;;;;;;18.72;98.37;99995.70;130465;1267;108822;-73
2022/08/29 03:38:38;;;;;;;8.60;6.20;;;;;;;18.75;98.12;100006.55;130415;1268;109049;-73
2022/08/29 03:41:43;;;;;;;7.70;6.40;;;;;;;18.71;98.53;100012.05;130385;1266;108698;-73
2022/08/29 03:44:48;;;;;;;8.30;6.40;;;;;;;18.70;97.99;100013.55;130378;1268;108995;-73
2022/08/29 03:47:54;;;;;;;7.20;6.20;;;;;;;18.67;98.41;100016.34;130376;1268;109043;-73
2022/08/29 03:50:59;;;;;;;6.60;5.60;;;;;;;18.66;98.68;100019.47;130460;1268;108674;-73
2022/08/29 03:54:06;;;;;;;7.50;5.60;;;;;;;18.68;97.90;100024.90;130395;1268;108874;-73
2022/08/29 03:57:11;;;;;;;9.20;6.70;;;;;;;18.74;97.57;100028.09;130361;1268;106882;-73
2022/08/29 04:00:19;;;;;;;6.50;5.80;;;;;;;18.76;97.45;100031.37;130313;1266;108690;-73
2022/08/29 04:03:24;;;;;;;6.60;5.40;;;;;;;18.80;97.33;100030.93;130400;1267;108847;-73
2022/08/29 04:06:30;;;;;;;7.30;5.80;;;;;;;18.85;97.20;100037.08;130371;1266;108947;-73
2022/08/29 04:09:37;;;;;;;7.90;6.50;;;;;;;18.84;97.26;100039.79;130513;1267;108863;-73
2022/08/29 04:12:43;;;;;;;7.30;6.50;;;;;;;18.84;97.78;100042.86;130388;1268;108789;-73
2022/08/29 04:15:48;;;;;;;7.70;6.60;;;;;;;18.82;97.40;100045.57;130350;1268;108906;-73
2022/08/29 04:18:54;;;;;;;9.20;6.20;;;;;;;18.80;97.71;100049.02;130413;1268;108638;-73
2022/08/29 04:21:59;;;;;;;7.40;6.70;;;;;;;18.78;97.90;100056.08;130282;1268;108868;-73
2022/08/29 04:25:07;;;;;;;8.20;7.20;;;;;;;18.78;97.43;100057.81;130473;1268;108808;-73
2022/08/29 04:28:14;;;;;;;8.60;7.70;;;;;;;18.83;97.31;100063.08;130335;1268;109089;-73
2022/08/29 04:31:20;;;;;;;7.60;6.80;;;;;;;18.80;97.40;100070.89;130389;1268;108699;-73
2022/08/29 04:34:26;;;;;;;7.30;6.20;;;;;;;18.74;97.39;100071.00;130306;1268;108573;-73
2022/08/29 04:37:32;;;;;;;8.20;6.50;;;;;;;18.69;97.02;100074.96;130358;1268;108868;-74
2022/08/29 04:40:41;;;;;;;9.30;7.30;;;;;;;18.68;97.27;100074.73;130422;1266;108856;-75
2022/08/29 04:43:48;;;;;;;8.90;7.80;;;;;;;18.65;97.16;100077.97;130398;1266;109336;-73
2022/08/29 04:46:53;;;;;;;7.70;6.80;;;;;;;18.58;97.63;100078.19;130378;1268;107280;-73
2022/08/29 04:49:58;;;;;;;8.00;6.60;;;;;;;18.49;97.55;100077.66;130419;1268;109130;-74
2022/08/29 04:53:05;;;;;;;8.30;6.80;;;;;;;18.41;97.68;100074.21;130234;1268;108896;-73
2022/08/29 04:56:12;;;;;;;8.00;7.20;;;;;;;18.38;98.34;100078.61;130315;1268;109005;-73
2022/08/29 04:59:18;;;;;;;8.90;7.20;;;;;;;18.32;97.81;100078.58;130440;1268;108687;-73
2022/08/29 05:02:24;;;;;;;10.50;6.50;;;;;;;18.29;98.24;100079.59;130357;1268;108478;-73
2022/08/29 05:05:30;;;;;;;9.00;7.00;;;;;;;18.28;97.82;100077.67;130362;1266;108872;-73
2022/08/29 05:08:37;;;;;;;8.10;6.30;;;;;;;18.26;97.95;100080.58;130357;1268;108853;-75
2022/08/29 05:11:42;;;;;;;9.10;6.80;;;;;;;18.25;98.03;100083.41;130439;1266;108807;-74
2022/08/29 05:14:47;;;;;;;9.40;7.50;;;;;;;18.28;97.98;100088.02;130367;1267;109033;-75
2022/08/29 05:17:53;;;;;;;9.50;7.30;;;;;;;18.28;98.17;100093.66;130410;1267;107678;-78
2022/08/29 05:20:59;;;;;;;9.50;7.50;;;;;;;18.26;98.99;100095.54;130457;1268;108609;-79
2022/08/29 05:24:06;;;;;;;8.80;6.40;;;;;;;18.27;98.33;100096.33;130350;1268;108665;-79
2022/08/29 05:27:14;;;;;;;9.80;7.50;;;;;;;18.30;98.29;100099.83;130377;1267;108219;-79
2022/08/29 05:30:19;;;;;;;10.00;7.90;;;;;;;18.30;97.99;100105.84;130413;1268;108686;-79
2022/08/29 05:33:26;;;;;;;11.00;7.10;;;;;;;18.30;97.88;100104.51;130416;1268;108757;-79
2022/08/29 05:36:32;;;;;;;11.00;7.50;;;;;;;18.35;97.97;100100.48;130381;1268;107542;-79
2022/08/29 05:39:39;;;;;;;11.00;7.10;;;;;;;18.36;97.47;100106.09;130393;1268;108702;-79
2022/08/29 05:42:44;;;;;;;7.60;6.70;;;;;;;18.40;97.18;100105.13;130390;1268;108749;-79
2022/08/29 05:45:50;;;;;;;8.00;7.10;;;;;;;18.51;96.87;100111.58;130341;1267;108678;-79
2022/08/29 05:48:55;;;;;;;7.70;6.10;;;;;;;18.51;96.52;100114.28;130447;1266;108946;-79
2022/08/29 05:52:00;;;;;;;11.40;7.90;;;;;;;18.61;96.59;100117.85;130419;1268;108985;-79
2022/08/29 05:55:06;;;;;;;8.70;7.10;;;;;;;18.61;95.69;100113.23;130339;1266;108899;-79
2022/08/29 05:58:12;;;;;;;10.80;6.60;;;;;;;18.59;95.42;100120.43;130404;1267;108949;-79
2022/08/29 06:01:23;;;;;;;8.10;6.50;;;;;;;18.56;95.59;100123.91;130352;1266;108988;-79
2022/08/29 06:04:29;;;;;;;10.00;6.20;;;;;;;18.56;95.42;100124.84;130416;1268;108649;-79
2022/08/29 06:07:34;;;;;;;8.00;6.20;;;;;;;18.68;95.50;100123.15;130397;1268;108730;-79
2022/08/29 06:10:44;;;;;;;10.30;7.20;;;;;;;18.82;94.49;100133.34;130411;1268;107713;-79
2022/08/29 06:13:49;;;;;;;12.00;6.50;;;;;;;18.97;93.86;100137.99;130452;1268;108752;-79
2022/08/29 06:16:55;;;;;;;11.90;7.30;;;;;;;19.02;92.34;100142.15;130432;1268;108797;-79
2022/08/29 06:20:01;;;;;;;13.20;6.90;;;;;;;18.85;92.23;100139.81;130463;1266;108881;-79
2022/08/29 06:23:06;;;;;;;11.10;6.80;;;;;;;18.78;92.75;100135.97;130481;1268;108454;-79
2022/08/29 06:26:13;;;;;;;11.60;6.30;;;;;;;18.80;92.63;100140.06;130470;1268;108719;-79
2022/08/29 06:29:18;;;;;;;8.90;5.50;;;;;;;18.73;91.59;100150.35;130387;1266;109642;-79
2022/08/29 06:32:25;;;;;;;6.20;4.90;;;;;;;18.73;92.06;100155.09;130378;1267;108655;-79
2022/08/29 06:35:30;;;;;;;10.10;5.80;;;;;;;18.77;91.24;100163.58;130454;1268;108928;-79
2022/08/29 06:38:36;;;;;;;8.60;5.00;;;;;;;18.77;90.13;100166.86;130397;1267;108503;-79
2022/08/29 06:41:42;;;;;;;9.50;4.80;;;;;;;18.72;90.26;100163.58;130430;1267;107679;-79
2022/08/29 06:44:48;;;;;;;9.20;4.90;;;;;;;18.76;90.84;100166.58;130426;1267;108777;-79
2022/08/29 06:47:54;;;;;;;8.60;5.00;;;;;;;18.95;90.93;100172.48;130353;1268;109096;-80
2022/08/29 06:51:02;;;;;;;8.40;4.80;;;;;;;19.03;88.95;100179.71;130410;1267;108805;-79
2022/08/29 06:54:10;;;;;;;6.40;4.80;;;;;;;19.04;89.43;100183.91;130415;1268;108853;-79
2022/08/29 06:57:16;;;;;;;6.90;4.40;;;;;;;19.08;89.71;100181.70;130372;1266;108845;-79
2022/08/29 07:00:22;;;;;;;7.90;4.30;;;;;;;19.19;89.74;100187.27;130390;1268;107757;-79
2022/08/29 07:03:27;;;;;;;8.90;4.80;;;;;;;19.28;89.32;100190.85;130444;1266;108581;-79
2022/08/29 07:06:33;;;;;;;7.10;4.40;;;;;;;19.29;89.02;100198.73;130402;1268;108870;-79
2022/08/29 07:09:38;;;;;;;7.40;4.70;;;;;;;19.36;88.71;100205.15;130422;1268;108846;-79
2022/08/29 07:12:43;;;;;;;6.90;4.30;;;;;;;19.41;88.01;100205.48;130502;1268;108922;-79
2022/08/29 07:15:49;;;;;;;9.40;3.70;;;;;;;19.45;87.28;100211.13;130463;1268;108966;-79
2022/08/29 07:18:55;;;;;;;7.50;4.30;;;;;;;19.40;87.24;100209.56;130363;1268;108696;-79
2022/08/29 07:22:00;;;;;;;6.00;3.60;;;;;;;19.38;86.76;100215.09;130356;1268;108730;-78
2022/08/29 07:25:09;;;;;;;5.00;3.20;;;;;;;19.32;83.95;100218.91;130406;1268;109048;-78
2022/08/29 07:28:14;;;;;;;6.30;3.80;;;;;;;19.25;85.14;100220.71;130411;1267;108701;-78
2022/08/29 07:31:20;;;;;;;6.30;3.30;;;;;;;19.21;84.47;100221.70;130456;1268;107640;-80
2022/08/29 07:34:26;;;;;;;6.60;3.10;;;;;;;19.30;85.12;100227.03;130502;1268;108758;-80
2022/08/29 07:37:31;;;;;;;5.50;3.10;;;;;;;19.40;84.31;100224.09;130506;1267;107621;-80
2022/08/29 07:40:36;;;;;;;6.70;3.30;;;;;;;19.42;83.54;100226.13;130484;1267;108775;-80
2022/08/29 07:43:43;;;;;;;5.40;3.10;;;;;;;19.44;81.94;100227.45;130528;1268;109066;-80
2022/08/29 07:46:49;;;;;;;5.30;3.30;;;;;;;19.47;82.58;100234.73;130305;1267;108667;-78
2022/08/29 07:49:54;;;;;;;7.60;2.80;;;;;;;19.48;82.44;100234.85;130322;1268;108542;-78
2022/08/29 07:53:00;;;;;;;5.80;3.30;;;;;;;19.53;82.26;100240.27;130359;1268;107467;-78
2022/08/29 07:56:09;;;;;;;6.60;3.20;;;;;;;19.72;82.94;100242.79;130379;1267;108661;-78
2022/08/29 07:59:17;;;;;;;9.00;4.00;;;;;;;19.90;81.77;100245.61;130397;1268;108717;-78
2022/08/29 08:02:22;;;;;;;8.40;3.10;;;;;;;20.02;81.96;100248.84;130379;1268;107991;-81
2022/08/29 08:05:27;;;;;;;5.90;3.00;;;;;;;19.99;79.43;100254.53;130484;1268;108711;-80
2022/08/29 08:08:33;;;;;;;5.70;3.10;;;;;;;19.96;79.28;100255.41;130455;1266;108880;-80
2022/08/29 08:11:40;;;;;;;6.60;3.10;;;;;;;20.00;79.78;100252.30;130485;1268;108885;-80
2022/08/29 08:14:46;;;;;;;5.50;3.40;;;;;;;20.01;80.87;100252.44;130534;1268;107682;-80
2022/08/29 08:17:51;;;;;;;5.30;3.10;;;;;;;20.06;79.34;100258.96;130389;1268;108755;-80
2022/08/29 08:20:56;;;;;;;6.90;3.30;;;;;;;20.16;79.82;100257.00;130385;1268;108747;-80
2022/08/29 08:24:02;;;;;;;5.30;2.80;;;;;;;20.37;79.94;100253.38;130383;1266;108885;-80
2022/08/29 08:27:08;;;;;;;6.80;3.20;;;;;;;20.56;78.88;100254.98;130338;1268;108949;-80
2022/08/29 08:30:14;;;;;;;5.80;3.10;;;;;;;20.49;76.32;100259.43;130404;1268;108986;-80
2022/08/29 08:33:20;;;;;;;4.50;3.00;;;;;;;20.55;79.12;100254.54;130531;1268;108979;-80
2022/08/29 08:36:28;;;;;;;6.40;2.90;;;;;;;20.83;78.76;100254.98;130388;1266;108731;-80
2022/08/29 08:39:33;;;;;;;4.30;2.60;;;;;;;20.81;77.79;100252.15;130453;1268;108854;-80
2022/08/29 08:42:42;;;;;;;5.70;3.10;;;;;;;20.95;77.87;100257.72;130442;1266;108791;-80
2022/08/29 08:45:48;;;;;;;10.50;3.20;;;;;;;20.89;76.71;100255.59;130343;1268;109042;-80
2022/08/29 08:48:56;;;;;;;4.80;3.20;;;;;;;20.89;76.40;100253.59;130372;1268;109638;-80
2022/08/29 08:52:06;;;;;;;5.80;3.20;;;;;;;20.82;75.65;100256.53;130370;1266;108533;-80
2022/08/29 08:55:20;;;;;;;4.70;3.10;;;;;;;20.82;76.08;100252.93;130389;1268;108761;-80
2022/08/29 08:58:33;;;;;;;5.70;3.30;;;;;;;20.87;75.26;100257.54;130405;1268;108805;-80
2022/08/29 09:01:43;;;;;;;6.90;3.20;;;;;;;20.82;74.19;100255.10;130342;1267;109581;-80
2022/08/29 09:05:01;;;;;;;7.70;2.90;;;;;;;20.64;72.87;100257.39;130303;1268;108868;-80
2022/08/29 09:08:17;;;;;;;6.00;3.50;;;;;;;20.40;72.86;100263.50;130447;1266;108675;-80
2022/08/29 09:11:30;;;;;;;4.70;3.30;;;;;;;20.32;73.96;100253.95;130488;1268;108609;-80
2022/08/29 09:14:55;;;;;;;5.70;3.60;;;;;;;20.57;74.29;100258.15;130436;1268;108747;-80
2022/08/29 09:18:04;;;;;;;5.00;3.20;;;;;;;20.68;72.18;100261.77;130345;1268;108669;-80
2022/08/29 09:21:15;;;;;;;5.10;3.10;;;;;;;20.48;71.74;100267.08;130358;1267;108669;-80
2022/08/29 09:24:27;;;;;;;5.60;3.20;;;;;;;20.45;72.88;100267.98;130349;1268;108714;-79
2022/08/29 09:27:35;;;;;;;6.10;3.40;;;;;;;20.53;71.40;100270.25;130424;1267;108824;-80
2022/08/29 09:30:43;;;;;;;6.10;3.00;;;;;;;20.55;70.36;100269.73;130392;1268;108675;-80
2022/08/29 09:33:52;;;;;;;5.80;3.10;;;;;;;20.57;70.16;100275.20;130355;1268;108716;-78
2022/08/29 09:36:58;;;;;;;5.60;3.20;;;;;;;20.56;69.88;100271.29;130376;1268;108838;-78
2022/08/29 09:40:08;;;;;;;5.30;2.90;;;;;;;20.50;69.68;100270.06;130485;1268;108803;-80
2022/08/29 09:43:20;;;;;;;6.50;2.80;;;;;;;20.60;69.55;100271.17;130348;1268;107559;-79
2022/08/29 09:46:24;;;;;;;;;;;;;;;20.84;69.89;100270.73;130400;1268;107680;-78
2022/08/29 09:49:30;;;;;;;5.00;2.40;;;;;;;21.03;68.79;100277.38;130387;1268;108922;-78
2022/08/29 09:52:37;;;;;;;4.60;2.60;;;;;;;21.00;66.04;100278.33;130360;1268;108939;-78
2022/08/29 09:55:45;;;;;;;4.00;2.30;;;;;;;20.99;65.49;100277.17;130437;1266;108913;-78
2022/08/29 09:59:01;;;;;;;5.60;2.50;;;;;;;20.97;63.56;100276.60;130496;1268;107595;-78
2022/08/29 10:02:24;;;;;;;4.70;2.70;;;;;;;20.95;64.88;100272.70;130453;1268;108734;-78
2022/08/29 10:05:43;;;;;;;6.90;2.40;;;;;;;21.03;65.52;100269.58;130395;1268;108957;-80
2022/08/29 10:08:59;;;;;;;5.00;2.70;;;;;;;21.08;66.50;100274.02;130436;1268;109196;-78
2022/08/29 10:12:12;;;;;;;5.90;2.60;;;;;;;21.14;64.75;100276.16;130450;1268;108864;-80
2022/08/29 10:15:23;;;;;;;5.30;2.70;;;;;;;21.22;66.28;100271.04;130398;1268;108832;-80
2022/08/29 10:18:41;;;;;;;8.10;2.60;;;;;;;21.33;66.68;100270.40;130354;1268;108911;-78
2022/08/29 10:21:56;;;;;;;6.80;2.60;;;;;;;21.37;64.05;100279.29;130374;1267;108800;-78
2022/08/29 10:25:08;;;;;;;4.30;2.50;;;;;;;21.32;63.81;100277.22;130413;1268;109051;-80
2022/08/29 10:28:23;;;;;;;7.50;2.50;;;;;;;21.41;65.48;100271.76;130366;1267;108870;-77
2022/08/29 10:31:36;;;;;;;6.00;2.60;;;;;;;21.47;63.83;100277.14;130377;1268;108715;-78
2022/08/29 10:35:00;;;;;;;4.40;2.30;;;;;;;21.51;65.44;100275.89;130403;1268;108566;-78
2022/08/29 10:38:18;;;;;;;4.30;2.40;;;;;;;21.59;64.54;100271.46;130330;1268;108725;-78
2022/08/29 10:41:32;;;;;;;4.50;2.30;;;;;;;21.41;62.83;100279.31;130369;1268;108682;-80
2022/08/29 10:44:49;;;;;;;6.20;2.60;;;;;;;21.21;62.53;100283.38;130358;1268;107733;-78
2022/08/29 10:48:05;;;;;;;4.30;2.70;;;;;;;21.23;63.88;100281.05;130383;1268;108767;-79
2022/08/29 10:51:22;;;;;;;6.00;2.20;;;;;;;21.26;63.76;100281.58;130317;1268;108732;-79
2022/08/29 10:54:37;;;;;;;5.40;2.40;;;;;;;21.34;63.96;100275.02;130262;1268;108952;-79
2022/08/29 10:57:55;;;;;;;4.50;2.30;;;;;;;21.46;63.35;100280.27;130400;1268;108870;-79
2022/08/29 11:01:08;;;;;;;4.70;2.20;;;;;;;21.56;62.77;100275.51;130345;1268;108847;-79
2022/08/29 11:04:19;;;;;;;4.50;2.50;;;;;;;21.70;64.08;100276.69;130374;1268;108749;-79
2022/08/29 11:07:32;;;;;;;5.60;2.50;;;;;;;21.74;59.21;100286.09;130361;1268;107722;-79
2022/08/29 11:10:43;;;;;;;5.00;2.30;;;;;;;21.69;62.15;100274.19;130388;1266;107665;-79
2022/08/29 11:13:54;;;;;;;3.90;2.30;;;;;;;21.82;59.82;100280.94;130373;1268;108694;-79
2022/08/29 11:17:00;;;;;;;3.80;2.00;;;;;;;21.83;59.12;100276.84;130370;1268;107669;-79
2022/08/29 11:20:13;;;;;;;4.10;2.40;;;;;;;21.94;61.74;100275.86;130425;1267;108728;-78
2022/08/29 11:23:30;;;;;;;5.30;2.20;;;;;;;22.10;61.37;100278.27;130510;1268;108873;-79
2022/08/29 11:26:53;;;;;;;4.30;2.10;;;;;;;22.15;61.68;100279.88;130352;1268;109010;-79
2022/08/29 11:30:05;;;;;;;4.00;2.40;;;;;;;22.05;60.21;100282.13;130471;1266;108774;-79
2022/08/29 11:33:23;;;;;;;4.00;2.40;;;;;;;22.10;62.15;100281.36;130301;1268;107691;-79
2022/08/29 11:36:57;;;;;;;4.90;2.70;;;;;;;22.27;59.84;100282.38;130364;1267;108668;-79
2022/08/29 11:40:14;;;;;;;3.90;1.90;;;;;;;22.51;61.48;100282.73;130330;1267;108760;-79
2022/08/29 11:43:24;;;;;;;3.40;2.00;;;;;;;22.77;60.08;100281.46;130373;1268;108726;-79
2022/08/29 11:46:39;;;;;;;4.20;2.10;;;;;;;22.95;60.78;100277.45;130315;1268;108761;-79
2022/08/29 11:49:47;;;;;;;4.30;2.30;;;;;;;23.07;59.69;100272.54;130331;1268;108612;-79
2022/08/29 11:52:58;;;;;;;5.20;2.40;;;;;;;23.11;58.86;100278.41;130343;1268;108657;-79
2022/08/29 11:56:26;;;;;;;4.00;2.40;;;;;;;22.92;57.57;100283.19;130343;1267;108868;-79
2022/08/29 11:59:58;;;;;;;5.50;2.40;;;;;;;22.80;58.98;100285.76;130361;1267;108668;-79
2022/08/29 12:03:05;;;;;;;4.10;2.00;;;;;;;22.81;58.96;100282.58;130315;1267;108889;-79
2022/08/29 12:06:32;;;;;;;3.70;2.10;;;;;;;22.71;57.59;100281.64;130339;1268;108704;-79
2022/08/29 12:09:55;;;;;;;6.10;2.30;;;;;;;22.59;58.78;100284.19;130199;1267;108799;-79
2022/08/29 12:13:02;;;;;;;4.40;2.10;;;;;;;22.66;58.28;100280.58;130324;1268;108590;-78
2022/08/29 12:16:09;;;;;;;4.50;1.90;;;;;;;22.73;56.04;100276.35;130355;1267;109003;-79
2022/08/29 12:19:52;;;;;;;5.30;2.10;;;;;;;22.64;56.21;100280.40;129012;1267;1854021;-79
2022/08/29 12:23:01;;;;;;;4.50;2.10;;;;;;;22.46;57.32;100286.39;130376;1268;108905;-79
2022/08/29 12:26:27;;;;;;;5.40;2.30;;;;;;;22.23;57.87;100289.52;130336;1268;108775;-79
2022/08/29 12:29:34;;;;;;;4.20;2.10;;;;;;;22.26;57.40;100290.91;130320;1268;108776;-79
2022/08/29 12:32:56;;;;;;;3.80;2.00;;;;;;;22.41;58.12;100289.80;130293;1268;108711;-79
2022/08/29 12:36:18;;;;;;;4.60;2.00;;;;;;;22.52;56.93;100294.46;130308;1268;107638;-79
2022/08/29 12:39:54;;;;;;;3.20;1.90;;;;;;;22.62;57.89;100291.50;130321;1268;108690;-79
2022/08/29 12:43:22;;;;;;;6.40;2.10;;;;;;;22.76;57.63;100293.94;130350;1268;108939;-79
2022/08/29 12:46:33;;;;;;;3.10;1.90;;;;;;;22.66;56.00;100296.90;130369;1268;108912;-79
2022/08/29 12:49:47;;;;;;;4.20;2.20;;;;;;;22.59;57.49;100297.95;130372;1268;108752;-79
2022/08/29 12:53:03;;;;;;;3.30;1.90;;;;;;;22.81;56.94;100292.06;130322;1268;109592;-78
2022/08/29 12:56:20;;;;;;;5.90;2.00;;;;;;;22.99;54.07;100288.75;130357;1268;108865;-78
2022/08/29 12:59:26;;;;;;;3.90;1.70;;;;;;;23.10;56.12;100286.94;130321;1268;108515;-80
2022/08/29 13:02:34;;;;;;;3.80;1.80;;;;;;;23.17;53.42;100289.48;130349;1267;108909;-78
2022/08/29 13:05:41;;;;;;;5.50;1.90;;;;;;;23.18;54.83;100284.67;130375;1268;108718;-78
2022/08/29 13:08:50;;;;;;;2.20;1.60;;;;;;;23.19;55.06;100286.16;130371;1268;108920;-78
2022/08/29 13:12:11;;;;;;;4.10;2.10;;;;;;;23.26;54.33;100280.06;130299;1268;108729;-77
2022/08/29 13:15:22;;;;;;;2.60;1.80;;;;;;;23.21;52.78;100279.77;130378;1268;108714;-79
2022/08/29 13:18:28;;;;;;;3.30;2.00;;;;;;;23.13;55.06;100280.75;130360;1268;107601;-79
2022/08/29 13:21:34;;;;;;;3.90;2.00;;;;;;;23.16;54.48;100279.27;130366;1268;108694;-78
2022/08/29 13:24:40;;;;;;;4.00;2.00;;;;;;;23.11;51.83;100275.29;130344;1268;108810;-78
2022/08/29 13:27:47;;;;;;;2.90;1.60;;;;;;;22.87;52.28;100280.34;130328;1268;108690;-79
2022/08/29 13:31:24;;;;;;;3.80;2.00;;;;;;;22.77;53.65;100279.10;130324;1268;109679;-78
2022/08/29 13:34:29;;;;;;;3.50;1.90;;;;;;;22.70;54.50;100277.85;130416;1268;108916;-79
2022/08/29 13:37:38;;;;;;;3.50;1.70;;;;;;;22.61;54.40;100272.12;130530;1268;108911;-79
2022/08/29 13:40:47;;;;;;;3.70;1.90;;;;;;;22.62;53.32;100269.20;130600;1268;107773;-79
2022/08/29 13:43:52;;;;;;;4.20;1.70;;;;;;;22.59;54.15;100269.02;130498;1268;108918;-79
2022/08/29 13:47:03;;;;;;;2.40;1.70;;;;;;;22.66;54.20;100267.56;130493;1268;109574;-79
2022/08/29 13:50:11;;;;;;;3.90;2.00;;;;;;;22.67;54.15;100264.98;130383;1268;108765;-81
2022/08/29 13:53:17;;;;;;;2.80;2.10;;;;;;;22.58;53.22;100261.33;130463;1268;108784;-78
2022/08/29 13:56:27;;;;;;;2.80;1.90;;;;;;;22.38;54.30;100259.22;130330;1268;108923;-79
2022/08/29 13:59:36;;;;;;;5.30;1.90;;;;;;;22.35;54.92;100260.27;130413;1268;108697;-78
2022/08/29 14:02:41;;;;;;;4.10;2.10;;;;;;;22.29;53.13;100262.02;130424;1268;108706;-78
2022/08/29 14:05:47;;;;;;;4.40;2.10;;;;;;;22.10;53.77;100260.83;130411;1268;108741;-78
2022/08/29 14:08:54;;;;;;;4.50;2.30;;;;;;;22.00;53.63;100262.55;130458;1268;108734;-78
2022/08/29 14:12:00;;;;;;;2.90;1.90;;;;;;;22.08;53.78;100264.79;130412;1268;108692;-77
2022/08/29 14:15:09;;;;;;;3.10;2.00;;;;;;;22.19;53.82;100261.13;130415;1268;108584;-78
2022/08/29 14:18:15;;;;;;;3.70;2.10;;;;;;;22.35;53.28;100266.33;130471;1268;108086;-78
2022/08/29 14:21:21;;;;;;;2.50;1.80;;;;;;;22.46;52.80;100260.29;130406;1268;108739;-79